Time;durP1;ratioP1;P1;durP2;ratioP2;P2;SDS_P1;SDS_P2;PMS_P1;PMS_P2;Temp;Humidity;BMP_temperature;BMP_pressure;BME280_temperature;BME280_humidity;BME280_pressure;Samples;Min_cycle;Max_cycle;Signal;HPM_P1;HPM_P2
2020/12/04 00:01:15;;;;;;;16.17;11.60;;;5.90;56.60;;;;;;5061500;28;20271;-41
2020/12/04 00:03:40;;;;;;;17.30;12.37;;;6.00;56.70;;;;;;5058901;28;20192;-41
2020/12/04 00:06:06;;;;;;;17.63;11.50;;;5.80;56.50;;;;;;5056966;28;20236;-41
2020/12/04 00:08:31;;;;;;;19.97;12.27;;;5.90;57.50;;;;;;5055079;28;20622;-41
2020/12/04 00:10:57;;;;;;;19.37;13.50;;;5.90;56.90;;;;;;5063458;28;20224;-41
2020/12/04 00:13:23;;;;;;;18.30;13.63;;;5.90;56.70;;;;;;5062866;28;20201;-42
2020/12/04 00:15:48;;;;;;;16.87;12.00;;;5.70;57.00;;;;;;5059673;28;20199;-41
2020/12/04 00:18:14;;;;;;;16.27;12.03;;;5.50;57.30;;;;;;5067626;28;20599;-41
2020/12/04 00:20:39;;;;;;;15.93;11.80;;;5.30;57.90;;;;;;5062322;28;20222;-41
2020/12/04 00:23:05;;;;;;;18.70;12.00;;;5.50;58.20;;;;;;5061805;28;20201;-41
2020/12/04 00:25:31;;;;;;;23.43;12.60;;;5.90;57.50;;;;;;5056579;28;20198;-41
2020/12/04 00:27:57;;;;;;;16.97;13.53;;;6.10;56.70;;;;;;5066630;28;20195;-41
2020/12/04 00:30:22;;;;;;;19.93;12.33;;;6.00;56.60;;;;;;5056866;28;20531;-41
2020/12/04 00:32:48;;;;;;;15.87;11.17;;;6.00;57.00;;;;;;5062899;28;20192;-41
2020/12/04 00:35:13;;;;;;;17.03;12.10;;;5.90;56.90;;;;;;5058871;28;20198;-41
2020/12/04 00:37:39;;;;;;;19.53;13.07;;;5.80;57.20;;;;;;5062170;28;20647;-41
2020/12/04 00:40:04;;;;;;;18.23;11.50;;;5.80;57.20;;;;;;5057565;28;20191;-41
2020/12/04 00:42:30;;;;;;;15.20;11.37;;;5.40;57.40;;;;;;5058954;28;20189;-41
2020/12/04 00:44:56;;;;;;;18.20;12.40;;;5.40;57.90;;;;;;5068105;28;20223;-41
2020/12/04 00:47:22;;;;;;;19.70;13.77;;;5.70;57.80;;;;;;5063991;28;20270;-41
2020/12/04 00:49:47;;;;;;;16.03;11.60;;;5.80;57.30;;;;;;5064927;28;20326;-41
2020/12/04 00:52:13;;;;;;;16.87;11.67;;;5.70;56.90;;;;;;5059020;28;20529;-41
2020/12/04 00:54:38;;;;;;;18.00;12.27;;;5.60;57.40;;;;;;5056146;28;20271;-41
2020/12/04 00:57:06;;;;;;;15.13;10.83;;;5.90;57.10;;;;;;5063357;28;20193;-41
2020/12/04 00:59:32;;;;;;;14.73;10.53;;;6.00;56.50;;;;;;5061414;28;20913;-41
2020/12/04 01:01:57;;;;;;;16.13;10.80;;;6.10;56.40;;;;;;5067234;28;20461;-41
2020/12/04 01:04:23;;;;;;;15.10;11.30;;;6.10;56.00;;;;;;5058722;28;20726;-41
2020/12/04 01:06:49;;;;;;;14.73;10.53;;;6.20;55.90;;;;;;5069848;28;20240;-41
2020/12/04 01:09:14;;;;;;;14.37;11.07;;;6.40;55.40;;;;;;5057599;28;20203;-41
2020/12/04 01:11:40;;;;;;;16.87;11.20;;;6.20;55.70;;;;;;5066961;28;20673;-41
2020/12/04 01:14:07;;;;;;;15.77;10.93;;;5.80;56.20;;;;;;5062086;28;20236;-41
2020/12/04 01:16:33;;;;;;;16.87;12.00;;;5.80;56.80;;;;;;5065740;28;20789;-41
2020/12/04 01:18:58;;;;;;;18.03;11.90;;;5.70;56.90;;;;;;5056356;28;20443;-41
2020/12/04 01:21:24;;;;;;;17.40;12.13;;;5.60;57.10;;;;;;5061219;28;20192;-41
2020/12/04 01:23:51;;;;;;;17.53;11.60;;;5.50;57.50;;;;;;5063166;28;20245;-41
2020/12/04 01:26:18;;;;;;;18.33;11.47;;;5.40;57.80;;;;;;5060363;28;20766;-42
2020/12/04 01:28:43;;;;;;;19.67;12.27;;;5.40;58.20;;;;;;5059939;28;20434;-41
2020/12/04 01:31:09;;;;;;;17.50;12.07;;;5.70;57.90;;;;;;5059316;28;20482;-41
2020/12/04 01:33:35;;;;;;;17.20;10.97;;;5.80;57.30;;;;;;5063081;28;20204;-42
2020/12/04 01:36:01;;;;;;;15.50;11.23;;;5.90;56.90;;;;;;5067083;28;20442;-41
2020/12/04 01:38:27;;;;;;;15.70;11.40;;;5.90;56.70;;;;;;5055969;28;20449;-41
2020/12/04 01:41:00;;;;;;;17.37;11.40;;;5.80;57.00;;;;;;5066649;28;20196;-42
2020/12/04 01:43:26;;;;;;;16.43;12.37;;;5.90;57.00;;;;;;5062794;28;20188;-41
2020/12/04 01:45:52;;;;;;;15.87;10.93;;;5.80;57.40;;;;;;5063228;28;20435;-41
2020/12/04 01:48:17;;;;;;;15.67;11.47;;;5.80;57.30;;;;;;5066805;28;20192;-41
2020/12/04 01:50:43;;;;;;;15.93;11.20;;;5.80;57.10;;;;;;5060725;28;20223;-41
2020/12/04 01:53:09;;;;;;;15.33;10.70;;;5.90;56.90;;;;;;5058514;28;21010;-41
2020/12/04 01:55:34;;;;;;;15.03;10.67;;;5.90;56.90;;;;;;5061467;28;20184;-41
2020/12/04 01:58:03;;;;;;;17.97;10.97;;;5.80;56.70;;;;;;5067897;28;20200;-41
2020/12/04 02:00:28;;;;;;;14.57;10.27;;;5.80;57.00;;;;;;5062288;28;20447;-41
2020/12/04 02:02:54;;;;;;;16.97;12.10;;;5.90;56.80;;;;;;5058913;28;20453;-41
2020/12/04 02:05:20;;;;;;;17.97;11.13;;;5.80;56.90;;;;;;5067064;28;20211;-41
2020/12/04 02:08:13;;;;;;;15.83;11.80;;;5.80;56.80;;;;;;5061335;28;20243;-41
2020/12/04 02:10:45;;;;;;;17.30;10.70;;;5.70;56.90;;;;;;5062180;28;20228;-41
2020/12/04 02:13:12;;;;;;;19.07;11.93;;;5.70;57.20;;;;;;5062214;28;20518;-41
2020/12/04 02:15:38;;;;;;;18.77;11.20;;;5.70;57.20;;;;;;5059102;28;20433;-41
2020/12/04 02:18:05;;;;;;;18.33;10.63;;;5.90;57.10;;;;;;5060057;28;20981;-42
2020/12/04 02:20:32;;;;;;;13.20;10.47;;;5.90;57.50;;;;;;5063588;28;20200;-41
2020/12/04 02:22:58;;;;;;;12.97;9.60;;;5.80;57.10;;;;;;5059255;28;20431;-41
2020/12/04 02:25:24;;;;;;;14.77;10.43;;;5.90;57.00;;;;;;5061995;28;20427;-41
2020/12/04 02:27:50;;;;;;;16.10;11.00;;;6.10;56.70;;;;;;5068329;28;20192;-41
2020/12/04 02:30:28;;;;;;;14.80;10.33;;;5.90;56.60;;;;;;5063039;28;20234;-41
2020/12/04 02:32:54;;;;;;;15.27;10.23;;;5.90;56.70;;;;;;5062255;28;20430;-41
2020/12/04 02:35:20;;;;;;;16.83;11.27;;;6.20;56.50;;;;;;5064747;28;20434;-41
2020/12/04 02:37:45;;;;;;;14.83;10.30;;;6.20;56.10;;;;;;5062363;28;20599;-41
2020/12/04 02:40:11;;;;;;;15.90;10.50;;;6.00;56.00;;;;;;5060271;28;20218;-41
2020/12/04 02:42:36;;;;;;;15.90;10.37;;;5.80;57.00;;;;;;5052649;28;20193;-41
2020/12/04 02:45:02;;;;;;;14.23;10.57;;;6.10;56.50;;;;;;5059119;28;20200;-41
2020/12/04 02:47:28;;;;;;;15.90;10.03;;;6.10;56.30;;;;;;5060683;28;20299;-41
2020/12/04 02:49:54;;;;;;;17.90;9.90;;;6.10;56.30;;;;;;5061663;28;20574;-41
2020/12/04 02:52:23;;;;;;;14.77;10.57;;;6.30;56.00;;;;;;5056769;28;20275;-41
2020/12/04 02:54:49;;;;;;;18.20;11.20;;;6.60;55.50;;;;;;5051613;28;20200;-41
2020/12/04 02:57:14;;;;;;;16.07;9.60;;;6.60;54.90;;;;;;5055214;28;20430;-41
2020/12/04 02:59:40;;;;;;;12.50;10.20;;;6.50;55.00;;;;;;5071739;28;20249;-41
2020/12/04 03:02:06;;;;;;;14.03;9.63;;;6.30;55.30;;;;;;5065723;28;20670;-41
2020/12/04 03:04:31;;;;;;;14.47;10.03;;;6.30;55.40;;;;;;5067709;28;20196;-41
2020/12/04 03:06:57;;;;;;;16.23;10.80;;;6.00;55.70;;;;;;5062901;28;20649;-41
2020/12/04 03:09:22;;;;;;;14.73;10.23;;;6.00;55.90;;;;;;5060525;28;20239;-41
2020/12/04 03:11:48;;;;;;;14.07;10.30;;;5.90;56.30;;;;;;5067420;28;20679;-41
2020/12/04 03:14:13;;;;;;;16.67;10.90;;;5.90;56.40;;;;;;5068410;28;20222;-42
2020/12/04 03:16:39;;;;;;;16.37;10.40;;;6.10;56.30;;;;;;5071723;28;20184;-41
2020/12/04 03:19:05;;;;;;;17.50;11.50;;;6.20;55.80;;;;;;5068259;28;20196;-41
2020/12/04 03:21:30;;;;;;;15.53;10.57;;;6.10;55.40;;;;;;5060865;28;20203;-41
2020/12/04 03:23:56;;;;;;;15.77;9.77;;;5.90;55.90;;;;;;5062031;28;20291;-41
2020/12/04 03:26:22;;;;;;;14.77;10.80;;;6.10;55.70;;;;;;5064786;28;20636;-41
2020/12/04 03:28:48;;;;;;;14.67;10.27;;;6.10;55.60;;;;;;5066429;28;20192;-41
2020/12/04 03:31:13;;;;;;;12.23;9.00;;;6.20;55.50;;;;;;5066631;28;20239;-41
2020/12/04 03:33:39;;;;;;;15.30;10.50;;;6.10;55.80;;;;;;5062341;28;20287;-42
2020/12/04 03:36:04;;;;;;;12.40;8.80;;;6.10;55.70;;;;;;5059515;28;20672;-41
2020/12/04 03:38:30;;;;;;;17.53;10.50;;;6.30;55.70;;;;;;5064883;28;20215;-41
2020/12/04 03:40:55;;;;;;;12.93;9.50;;;6.10;55.40;;;;;;5056299;28;20993;-41
2020/12/04 03:43:21;;;;;;;13.90;9.70;;;6.30;55.70;;;;;;5067851;28;20192;-41
2020/12/04 03:45:47;;;;;;;12.50;9.33;;;6.50;55.70;;;;;;5061453;28;20664;-41
2020/12/04 03:48:12;;;;;;;16.20;9.87;;;6.50;54.70;;;;;;5069398;28;20257;-41
2020/12/04 03:50:38;;;;;;;14.20;9.87;;;6.60;54.70;;;;;;5057693;28;20224;-42
2020/12/04 03:53:04;;;;;;;12.37;8.50;;;6.80;54.30;;;;;;5066188;28;20643;-41
2020/12/04 03:55:29;;;;;;;11.20;8.63;;;7.00;54.10;;;;;;5061877;28;20201;-41
2020/12/04 03:57:55;;;;;;;15.77;9.87;;;7.10;53.50;;;;;;5062549;28;20435;-41
2020/12/04 04:00:22;;;;;;;11.80;8.80;;;7.30;53.20;;;;;;5063850;28;20200;-42
2020/12/04 04:02:48;;;;;;;11.83;9.23;;;7.50;52.70;;;;;;5067794;28;20191;-41
2020/12/04 04:05:13;;;;;;;13.03;9.43;;;7.60;52.40;;;;;;5068131;28;20802;-42
2020/12/04 04:07:39;;;;;;;11.90;10.30;;;7.90;51.90;;;;;;5060673;28;20237;-42
2020/12/04 04:10:04;;;;;;;13.60;9.23;;;7.90;51.60;;;;;;5061980;28;20224;-41
2020/12/04 04:12:30;;;;;;;13.63;8.80;;;8.10;51.60;;;;;;5061667;28;20188;-41
2020/12/04 04:14:56;;;;;;;15.23;9.30;;;8.20;51.40;;;;;;5063392;28;20196;-41
2020/12/04 04:17:21;;;;;;;13.77;9.67;;;8.30;51.10;;;;;;5069090;28;20200;-42
2020/12/04 04:19:47;;;;;;;13.93;9.20;;;8.30;51.10;;;;;;5067016;28;20688;-42
2020/12/04 04:22:12;;;;;;;13.37;9.80;;;8.40;51.10;;;;;;5065398;28;20226;-41
2020/12/04 04:24:38;;;;;;;12.87;9.20;;;8.50;50.90;;;;;;5060986;28;20188;-42
2020/12/04 04:27:03;;;;;;;13.83;10.37;;;8.50;50.70;;;;;;5070217;28;20728;-42
2020/12/04 04:29:29;;;;;;;12.67;9.70;;;8.60;50.80;;;;;;5060440;28;20657;-41
2020/12/04 04:31:54;;;;;;;14.93;10.10;;;8.40;50.80;;;;;;5064064;28;20555;-41
2020/12/04 04:34:21;;;;;;;13.40;9.87;;;8.40;50.90;;;;;;5060635;28;20251;-42
2020/12/04 04:36:46;;;;;;;13.53;9.23;;;8.50;50.80;;;;;;5065983;28;20655;-41
2020/12/04 04:39:12;;;;;;;11.07;9.70;;;8.50;50.70;;;;;;5063489;28;20441;-42
2020/12/04 04:41:38;;;;;;;14.20;9.23;;;8.40;50.70;;;;;;5059777;28;20563;-42
2020/12/04 04:44:03;;;;;;;14.97;9.27;;;8.30;50.80;;;;;;5063433;28;20188;-42
2020/12/04 04:46:43;;;;;;;13.87;9.40;;;8.20;51.00;;;;;;5065168;28;20196;-42
2020/12/04 04:49:13;;;;;;;14.20;9.17;;;8.30;51.30;;;;;;5055577;28;20208;-41
2020/12/04 04:51:41;;;;;;;14.37;9.70;;;8.20;51.30;;;;;;5056407;28;20539;-42
2020/12/04 04:54:09;;;;;;;15.73;10.43;;;7.80;52.10;;;;;;5062880;28;20518;-42
2020/12/04 04:56:35;;;;;;;16.57;10.50;;;7.90;52.80;;;;;;5063323;28;20454;-42
2020/12/04 04:59:01;;;;;;;12.03;9.33;;;8.10;52.50;;;;;;5059597;28;20443;-42
2020/12/04 05:01:26;;;;;;;13.13;9.90;;;8.30;52.30;;;;;;5067607;28;20434;-41
2020/12/04 05:03:59;;;;;;;14.43;9.70;;;8.40;52.10;;;;;;5061700;28;20196;-42
2020/12/04 05:06:35;;;;;;;17.23;10.70;;;8.40;52.00;;;;;;5067427;28;20243;-41
2020/12/04 05:09:06;;;;;;;15.13;10.30;;;8.30;52.20;;;;;;5066463;28;20486;-42
2020/12/04 05:11:33;;;;;;;15.50;10.27;;;8.30;52.40;;;;;;5059472;28;20494;-42
2020/12/04 05:14:16;;;;;;;13.70;9.80;;;8.30;52.50;;;;;;5064092;28;20438;-42
2020/12/04 05:16:45;;;;;;;13.10;9.50;;;8.10;52.50;;;;;;5065133;28;20965;-42
2020/12/04 05:19:12;;;;;;;15.03;10.43;;;8.00;53.30;;;;;;5060349;28;20457;-41
2020/12/04 05:21:38;;;;;;;13.33;10.50;;;8.10;53.10;;;;;;5069722;28;20545;-41
2020/12/04 05:24:05;;;;;;;14.80;10.50;;;8.30;52.80;;;;;;5066658;28;20430;-41
2020/12/04 05:26:38;;;;;;;14.97;10.73;;;8.40;52.40;;;;;;5058908;28;20427;-42
2020/12/04 05:29:05;;;;;;;15.33;10.47;;;8.50;52.20;;;;;;5053299;28;20434;-42
2020/12/04 05:31:33;;;;;;;15.73;10.80;;;8.60;52.30;;;;;;5063964;28;20488;-42
2020/12/04 05:34:00;;;;;;;12.07;8.20;;;8.70;52.20;;;;;;5057149;28;20438;-41
2020/12/04 05:36:30;;;;;;;13.70;9.83;;;8.70;52.10;;;;;;5059237;28;20518;-42
2020/12/04 05:38:57;;;;;;;15.00;11.23;;;8.40;52.50;;;;;;5055210;28;20519;-41
2020/12/04 05:41:24;;;;;;;12.70;9.40;;;8.20;53.10;;;;;;5056486;28;20450;-42
2020/12/04 05:43:53;;;;;;;15.53;9.90;;;8.20;52.90;;;;;;5069531;28;20856;-41
2020/12/04 05:46:26;;;;;;;11.90;8.37;;;8.00;53.00;;;;;;5063196;28;20546;-41
2020/12/04 05:48:58;;;;;;;13.37;9.37;;;7.80;53.00;;;;;;5063898;28;20451;-42
2020/12/04 05:51:25;;;;;;;14.30;9.40;;;7.70;53.10;;;;;;5066718;28;20497;-41
2020/12/04 05:53:52;;;;;;;12.10;8.67;;;7.20;53.50;;;;;;5061319;28;20431;-42
2020/12/04 05:56:19;;;;;;;11.57;9.20;;;6.90;54.30;;;;;;5066683;28;20447;-41
2020/12/04 05:58:47;;;;;;;12.07;9.17;;;7.20;54.50;;;;;;5064199;28;20964;-41
2020/12/04 06:01:20;;;;;;;13.20;8.83;;;7.30;54.10;;;;;;5068192;28;20450;-41
2020/12/04 06:03:50;;;;;;;13.03;9.30;;;7.30;53.60;;;;;;5062545;28;20447;-42
2020/12/04 06:06:37;;;;;;;10.87;8.80;;;7.10;53.60;;;;;;5055821;28;20478;-41
2020/12/04 06:09:05;;;;;;;12.53;9.10;;;6.70;54.60;;;;;;5068213;28;20433;-41
2020/12/04 06:11:37;;;;;;;11.60;7.40;;;6.50;55.10;;;;;;5068169;28;20485;-42
2020/12/04 06:14:16;;;;;;;14.77;8.37;;;6.50;56.20;;;;;;5065950;28;20434;-42
2020/12/04 06:16:42;;;;;;;12.10;8.43;;;7.00;58.40;;;;;;5059670;28;20451;-42
2020/12/04 06:19:28;;;;;;;11.03;7.80;;;7.40;57.40;;;;;;5059106;28;20610;-42
2020/12/04 06:22:04;;;;;;;10.30;7.97;;;7.80;55.30;;;;;;5053665;28;20453;-42
2020/12/04 06:24:30;;;;;;;11.90;8.70;;;7.90;53.80;;;;;;5052004;28;20450;-42
2020/12/04 06:26:55;;;;;;;13.30;8.77;;;8.20;53.50;;;;;;5055915;28;20438;-42
2020/12/04 06:29:21;;;;;;;10.67;7.83;;;8.20;52.30;;;;;;5060574;28;20430;-42
2020/12/04 06:31:47;;;;;;;11.00;7.97;;;8.20;52.50;;;;;;5059400;28;20650;-42
2020/12/04 06:34:21;;;;;;;12.63;8.63;;;8.50;52.50;;;;;;5066355;28;20196;-42
2020/12/04 06:36:48;;;;;;;13.03;8.70;;;8.40;51.60;;;;;;5070332;28;20561;-42
2020/12/04 06:39:30;;;;;;;11.00;7.07;;;8.40;51.60;;;;;;5073953;28;20470;-42
2020/12/04 06:41:59;;;;;;;10.60;7.90;;;8.30;51.10;;;;;;5059761;28;20446;-42
2020/12/04 06:44:27;;;;;;;10.63;7.73;;;7.80;51.20;;;;;;5073209;28;20536;-42
2020/12/04 06:46:55;;;;;;;12.37;8.63;;;7.40;52.30;;;;;;5063847;28;20438;-42
2020/12/04 06:52:10;;;;;;;9.50;6.60;;;7.40;53.10;;;;;;5062850;28;20489;-42
2020/12/04 06:54:40;;;;;;;10.93;8.20;;;7.20;53.30;;;;;;5064972;28;20489;-42
2020/12/04 06:57:07;;;;;;;10.77;8.33;;;7.20;53.50;;;;;;5071690;28;20454;-42
2020/12/04 06:59:35;;;;;;;13.60;7.73;;;7.00;53.90;;;;;;5061714;28;20441;-42
2020/12/04 07:02:15;;;;;;;11.27;8.30;;;7.30;54.00;;;;;;5070970;28;20419;-42
2020/12/04 07:04:46;;;;;;;13.77;8.40;;;7.30;53.90;;;;;;5064865;28;20933;-42
2020/12/04 07:07:24;;;;;;;12.93;8.60;;;7.00;53.60;;;;;;5064886;28;20667;-42
2020/12/04 07:09:58;;;;;;;13.13;8.83;;;7.00;54.40;;;;;;5067020;28;20449;-42
2020/12/04 07:12:26;;;;;;;9.53;8.07;;;6.90;54.90;;;;;;5067613;28;20949;-42
2020/12/04 07:14:54;;;;;;;10.07;7.67;;;6.80;54.80;;;;;;5062077;28;20438;-42
2020/12/04 07:17:22;;;;;;;11.00;7.97;;;6.70;55.50;;;;;;5071827;28;20517;-42
2020/12/04 07:19:50;;;;;;;12.50;8.23;;;6.80;55.50;;;;;;5072020;28;20452;-42
2020/12/04 07:22:17;;;;;;;12.97;9.00;;;7.00;55.40;;;;;;5065713;28;20442;-42
2020/12/04 07:24:44;;;;;;;9.47;8.03;;;7.10;54.70;;;;;;5072024;28;20760;-42
2020/12/04 07:27:15;;;;;;;9.43;7.30;;;7.30;54.20;;;;;;5063460;28;20953;-43
2020/12/04 07:29:41;;;;;;;9.77;7.43;;;7.40;53.80;;;;;;5065032;28;20480;-42
2020/12/04 07:32:07;;;;;;;10.63;7.70;;;7.50;53.40;;;;;;5067173;28;20581;-42
2020/12/04 07:34:36;;;;;;;11.70;7.73;;;7.70;53.70;;;;;;5063840;28;20867;-42
2020/12/04 07:37:02;;;;;;;13.43;9.53;;;8.00;53.00;;;;;;5066876;28;20441;-42
2020/12/04 07:39:35;;;;;;;10.83;8.77;;;8.00;52.30;;;;;;5066942;28;20484;-42
2020/12/04 07:42:03;;;;;;;12.30;9.10;;;8.20;52.10;;;;;;5071663;28;20445;-42
2020/12/04 07:44:32;;;;;;;10.80;7.50;;;8.20;51.90;;;;;;5069086;28;20427;-43
2020/12/04 07:47:01;;;;;;;10.60;7.93;;;7.90;51.30;;;;;;5059243;28;20465;-42
2020/12/04 07:49:27;;;;;;;10.50;8.10;;;8.20;52.00;;;;;;5068278;28;20441;-42
2020/12/04 07:51:53;;;;;;;13.10;9.80;;;8.40;51.60;;;;;;5071822;28;20965;-42
2020/12/04 07:54:21;;;;;;;10.13;8.37;;;8.00;51.50;;;;;;5070820;28;20497;-42
2020/12/04 07:56:52;;;;;;;20.10;10.77;;;8.20;52.40;;;;;;5062596;28;20196;-42
2020/12/04 07:59:27;;;;;;;21.43;11.33;;;8.10;51.90;;;;;;5068406;28;20439;-42
2020/12/04 08:01:53;;;;;;;12.97;9.23;;;8.10;52.30;;;;;;5069583;28;20462;-42
2020/12/04 08:04:20;;;;;;;11.80;8.93;;;8.00;52.00;;;;;;5071879;28;20507;-42
2020/12/04 08:06:49;;;;;;;11.80;8.80;;;8.00;52.10;;;;;;5070624;28;20466;-42
2020/12/04 08:09:16;;;;;;;11.20;8.10;;;7.80;52.30;;;;;;5066059;28;20442;-41
2020/12/04 08:11:56;;;;;;;13.70;9.57;;;7.50;53.30;;;;;;5067947;28;20481;-42
2020/12/04 08:14:22;;;;;;;11.80;8.80;;;7.70;53.40;;;;;;5067246;28;20431;-42
2020/12/04 08:16:48;;;;;;;12.23;9.27;;;7.40;53.30;;;;;;5064504;28;20430;-42
2020/12/04 08:19:14;;;;;;;11.53;8.50;;;7.50;54.20;;;;;;5056260;28;20942;-42
2020/12/04 08:22:00;;;;;;;12.60;8.93;;;7.80;53.80;;;;;;5070503;28;20245;-42
2020/12/04 08:24:32;;;;;;;12.73;9.60;;;8.00;53.10;;;;;;5067940;28;20438;-42
2020/12/04 08:27:14;;;;;;;13.10;8.80;;;8.00;53.00;;;;;;5056566;28;20440;-42
2020/12/04 08:29:42;;;;;;;11.67;9.13;;;7.70;53.20;;;;;;5053399;28;20846;-42
2020/12/04 08:32:18;;;;;;;11.87;9.47;;;8.10;53.90;;;;;;5061698;28;21331;-42
2020/12/04 08:34:44;;;;;;;12.23;8.23;;;8.20;52.60;;;;;;5063786;28;20466;-42
2020/12/04 08:37:11;;;;;;;14.93;8.30;;;8.10;52.00;;;;;;5058161;28;20465;-42
2020/12/04 08:39:38;;;;;;;11.80;8.30;;;8.10;53.10;;;;;;5059651;28;20191;-42
2020/12/04 08:42:15;;;;;;;10.30;7.60;;;8.20;52.30;;;;;;5059921;28;20451;-42
2020/12/04 08:45:01;;;;;;;9.63;7.33;;;8.10;51.90;;;;;;5058466;28;20857;-43
2020/12/04 08:47:42;;;;;;;10.60;8.33;;;7.80;52.00;;;;;;5063539;28;20451;-42
2020/12/04 08:50:15;;;;;;;11.90;7.80;;;7.80;52.20;;;;;;5070969;28;20474;-42
2020/12/04 08:52:48;;;;;;;10.50;7.87;;;7.80;52.60;;;;;;5062247;28;20930;-42
2020/12/04 08:55:22;;;;;;;13.10;9.10;;;7.80;52.40;;;;;;5064591;28;20976;-42
2020/12/04 08:57:50;;;;;;;11.63;8.83;;;8.20;52.20;;;;;;5067014;28;20438;-42
2020/12/04 09:00:18;;;;;;;10.63;7.93;;;8.20;51.70;;;;;;5063624;28;20431;-42
2020/12/04 09:02:44;;;;;;;10.17;7.20;;;8.00;51.70;;;;;;5067144;28;20445;-42
2020/12/04 09:05:16;;;;;;;12.80;9.03;;;8.30;52.10;;;;;;5066277;28;20427;-43
2020/12/04 09:07:42;;;;;;;13.57;8.97;;;8.30;51.50;;;;;;5064084;28;20462;-43
2020/12/04 09:10:10;;;;;;;12.50;8.53;;;8.30;51.90;;;;;;5061445;28;20493;-42
2020/12/04 09:12:36;;;;;;;15.43;8.47;;;8.40;51.70;;;;;;5065863;28;20776;-42
2020/12/04 09:15:03;;;;;;;9.80;7.87;;;8.30;51.30;;;;;;5065915;28;20445;-42
2020/12/04 09:17:29;;;;;;;9.77;8.07;;;8.20;51.80;;;;;;5057149;28;20500;-42
2020/12/04 09:19:55;;;;;;;11.73;8.60;;;8.20;51.90;;;;;;5064164;28;20438;-42
2020/12/04 09:22:21;;;;;;;11.57;8.30;;;8.40;51.60;;;;;;5064640;28;20442;-43
2020/12/04 09:24:47;;;;;;;11.70;9.10;;;8.40;51.70;;;;;;5068933;28;20858;-42
2020/12/04 09:27:12;;;;;;;15.50;8.70;;;8.10;52.20;;;;;;5067469;28;20908;-43
2020/12/04 09:29:38;;;;;;;11.10;8.97;;;8.10;53.10;;;;;;5068084;28;20203;-42
2020/12/04 09:32:09;;;;;;;12.37;8.87;;;8.10;53.40;;;;;;5060155;28;20505;-42
2020/12/04 09:34:34;;;;;;;11.03;8.80;;;8.40;53.50;;;;;;5062122;28;20196;-42
2020/12/04 09:37:28;;;;;;;13.03;9.03;;;8.30;52.50;;;;;;5066040;28;20795;-43
2020/12/04 09:39:57;;;;;;;10.93;8.10;;;8.10;52.70;;;;;;5057397;28;20239;-42
2020/12/04 09:42:24;;;;;;;12.13;7.80;;;8.00;53.50;;;;;;5068298;28;20434;-43
2020/12/04 09:44:51;;;;;;;12.13;9.17;;;8.10;53.20;;;;;;5065884;28;20524;-42
2020/12/04 09:47:17;;;;;;;11.40;8.17;;;8.40;52.90;;;;;;5068010;28;20434;-42
2020/12/04 09:49:44;;;;;;;10.30;7.90;;;8.70;52.20;;;;;;5064595;28;20785;-42
2020/12/04 09:52:10;;;;;;;13.30;8.30;;;8.80;51.60;;;;;;5064473;28;20990;-43
2020/12/04 09:54:38;;;;;;;8.77;7.20;;;8.90;51.00;;;;;;5058959;28;20440;-42
2020/12/04 09:57:05;;;;;;;11.87;8.37;;;9.00;50.30;;;;;;5060777;28;20931;-42
2020/12/04 09:59:32;;;;;;;10.90;8.10;;;9.00;50.20;;;;;;5066351;28;20434;-42
2020/12/04 10:01:58;;;;;;;11.13;7.10;;;8.80;50.30;;;;;;5061516;28;20784;-42
2020/12/04 10:04:24;;;;;;;11.83;8.03;;;9.00;50.80;;;;;;5068269;28;20521;-42
2020/12/04 10:06:52;;;;;;;11.50;8.13;;;9.40;50.70;;;;;;5067869;28;20480;-42
2020/12/04 10:09:19;;;;;;;9.03;7.90;;;9.50;50.00;;;;;;5068403;28;20495;-42
2020/12/04 10:11:45;;;;;;;11.30;8.23;;;9.60;49.80;;;;;;5062220;28;20486;-42
2020/12/04 10:14:10;;;;;;;11.83;8.20;;;9.80;49.40;;;;;;5070804;28;20438;-42
2020/12/04 10:16:37;;;;;;;13.63;8.37;;;9.90;49.30;;;;;;5055991;28;20192;-42
2020/12/04 10:19:03;;;;;;;11.93;7.77;;;9.90;49.20;;;;;;5059367;28;20181;-41
2020/12/04 10:21:32;;;;;;;10.30;8.17;;;9.50;49.60;;;;;;5065025;28;20439;-42
2020/12/04 10:23:58;;;;;;;10.53;8.20;;;9.50;50.10;;;;;;5071049;28;20464;-42
2020/12/04 10:26:24;;;;;;;13.87;9.20;;;9.50;50.10;;;;;;5071640;28;20438;-42
2020/12/04 10:28:49;;;;;;;14.77;8.00;;;9.40;50.60;;;;;;5070830;28;20204;-42
2020/12/04 10:31:15;;;;;;;12.80;8.40;;;9.40;50.60;;;;;;5060116;28;20220;-41
2020/12/04 10:33:41;;;;;;;12.90;8.37;;;9.60;50.30;;;;;;5065114;28;20203;-42
2020/12/04 10:36:07;;;;;;;12.27;8.03;;;9.70;49.90;;;;;;5087380;28;20668;-42
2020/12/04 10:38:33;;;;;;;11.10;7.90;;;9.70;50.10;;;;;;5069559;28;20194;-41
2020/12/04 10:40:59;;;;;;;14.67;9.40;;;10.10;49.00;;;;;;5062849;28;20443;-42
2020/12/04 10:43:25;;;;;;;12.63;8.73;;;10.50;48.00;;;;;;5069866;28;20200;-42
2020/12/04 10:45:51;;;;;;;9.43;8.03;;;10.70;47.30;;;;;;5065804;28;20563;-42
2020/12/04 10:48:17;;;;;;;12.90;9.20;;;10.70;47.00;;;;;;5065913;28;20910;-42
2020/12/04 10:50:48;;;;;;;12.50;9.97;;;10.80;46.90;;;;;;5071477;28;20493;-42
2020/12/04 10:53:14;;;;;;;16.23;10.53;;;10.80;46.60;;;;;;5067571;28;20945;-42
2020/12/04 10:55:43;;;;;;;17.93;11.03;;;10.90;46.20;;;;;;5070475;28;21432;-42
2020/12/04 10:58:10;;;;;;;16.27;10.50;;;11.10;46.10;;;;;;5070196;28;20454;-42
2020/12/04 11:00:35;;;;;;;12.43;8.97;;;11.20;46.40;;;;;;5061558;28;20435;-42
2020/12/04 11:05:46;;;;;;;11.07;8.53;;;11.50;46.50;;;;;;5068536;28;20214;-43
2020/12/04 11:08:12;;;;;;;12.97;9.37;;;11.60;46.40;;;;;;5067172;28;20479;-42
2020/12/04 11:10:38;;;;;;;12.93;9.47;;;11.70;46.10;;;;;;5074579;28;20481;-43
2020/12/04 11:13:04;;;;;;;11.73;8.97;;;11.70;45.60;;;;;;5060111;28;20203;-42
2020/12/04 11:15:30;;;;;;;13.00;9.20;;;11.70;45.60;;;;;;5055402;28;21173;-42
2020/12/04 11:17:56;;;;;;;12.30;8.80;;;11.60;45.30;;;;;;5072451;28;20191;-42
2020/12/04 11:20:25;;;;;;;10.77;9.47;;;11.50;45.70;;;;;;5059168;28;20499;-42
2020/12/04 11:22:51;;;;;;;12.80;8.80;;;11.60;46.40;;;;;;5072517;28;20286;-43
2020/12/04 11:25:17;;;;;;;16.90;9.47;;;11.70;46.60;;;;;;5060115;28;20439;-43
2020/12/04 11:27:46;;;;;;;12.50;9.40;;;11.70;46.60;;;;;;5063922;28;20439;-42
2020/12/04 11:30:13;;;;;;;12.57;9.73;;;11.80;46.30;;;;;;5062943;28;20922;-42
2020/12/04 11:32:43;;;;;;;15.63;9.00;;;11.90;46.10;;;;;;5071819;28;21049;-42
2020/12/04 11:35:10;;;;;;;30.63;15.87;;;12.00;46.10;;;;;;5063124;28;20464;-42
2020/12/04 11:37:36;;;;;;;16.97;10.60;;;12.10;46.20;;;;;;5068342;28;20462;-42
2020/12/04 11:40:07;;;;;;;12.27;9.83;;;12.10;46.30;;;;;;5062345;28;20453;-42
2020/12/04 11:42:33;;;;;;;11.03;9.40;;;11.60;46.50;;;;;;5059701;28;20438;-42
2020/12/04 11:44:58;;;;;;;13.60;8.73;;;11.80;46.70;;;;;;5068538;28;20966;-42
2020/12/04 11:47:28;;;;;;;15.33;9.73;;;11.90;46.40;;;;;;5068678;28;20195;-42
2020/12/04 11:49:54;;;;;;;10.60;8.77;;;11.90;46.40;;;;;;5064673;28;20199;-42
2020/12/04 11:52:19;;;;;;;13.03;9.53;;;11.90;46.60;;;;;;5058612;28;20446;-41
2020/12/04 11:54:46;;;;;;;11.70;8.63;;;11.90;46.50;;;;;;5059568;28;20430;-42
2020/12/04 11:57:12;;;;;;;9.80;8.07;;;11.80;46.20;;;;;;5062834;28;20192;-41
2020/12/04 11:59:38;;;;;;;19.30;13.53;;;11.70;46.50;;;;;;5066037;28;20439;-41
2020/12/04 12:02:04;;;;;;;27.33;16.53;;;11.70;46.70;;;;;;5068518;28;20448;-41
2020/12/04 12:04:30;;;;;;;19.07;14.00;;;11.70;46.80;;;;;;5067725;28;20470;-42
2020/12/04 12:06:55;;;;;;;13.50;10.00;;;11.70;46.80;;;;;;5066394;28;20501;-41
2020/12/04 12:09:21;;;;;;;12.30;9.30;;;11.70;46.70;;;;;;5064745;28;20544;-41
2020/12/04 12:11:47;;;;;;;13.33;10.10;;;11.70;46.40;;;;;;5068870;28;20255;-42
2020/12/04 12:14:13;;;;;;;13.37;9.83;;;11.50;46.70;;;;;;5068418;28;20961;-42
2020/12/04 12:16:38;;;;;;;12.47;9.70;;;11.50;46.90;;;;;;5068869;28;20273;-41
2020/12/04 12:19:04;;;;;;;12.60;9.70;;;11.50;46.70;;;;;;5063870;28;20215;-41
2020/12/04 12:21:30;;;;;;;15.73;10.57;;;11.50;46.40;;;;;;5062459;28;20200;-42
2020/12/04 12:23:55;;;;;;;12.13;10.70;;;11.50;46.50;;;;;;5061354;28;20200;-42
2020/12/04 12:26:21;;;;;;;13.03;9.37;;;11.50;46.80;;;;;;5070898;28;20204;-41
2020/12/04 12:28:47;;;;;;;13.70;10.27;;;11.50;47.20;;;;;;5067314;28;20250;-42
2020/12/04 12:31:13;;;;;;;16.20;10.30;;;11.60;47.30;;;;;;5064939;28;20481;-41
2020/12/04 12:33:38;;;;;;;16.63;11.00;;;11.30;47.50;;;;;;5063848;28;20250;-41
2020/12/04 12:36:04;;;;;;;15.43;11.30;;;11.20;47.40;;;;;;5062429;28;20200;-41
2020/12/04 12:38:30;;;;;;;12.83;10.30;;;11.30;46.90;;;;;;5067473;28;20608;-43
2020/12/04 12:40:56;;;;;;;12.57;10.17;;;11.20;46.50;;;;;;5068121;28;20192;-42
2020/12/04 12:43:21;;;;;;;20.10;7.83;;;11.30;46.40;;;;;;5069190;28;20296;-42
2020/12/04 12:45:47;;;;;;;19.90;11.30;;;11.30;50.20;;;;;;5056255;28;21232;-42
2020/12/04 12:48:13;;;;;;;14.57;11.17;;;11.60;53.00;;;;;;5064724;28;20195;-42